Laranjal do Jari, Brazil
Current Conditions -  °F | °C
As of 8:00 PM on Wednesday 22 Oct 2014 (Local Time) from SBMQ Reporting Station
Few Clouds Few Clouds  
Wind Chill: 84°   Ceiling: Unl
Heat Index: 91°   Visibility: 6mi
Dew Point: 73°   Wind: 8mph
Humidity: 70%   Direction: 60°ENE
Pressure: 29.85"   Gusts: NA
Location:  1.12°S, 52°W
Report Text: SBMQ 222300Z 06007KT 9999 FEW015 29/23 Q1011
Loading
Personal Weather Stations






























Interactive Weather Map
Tropical Storm Tracking
New forecast layout! Learn more

10-Day Weather Forecast

Advertisements
Track Severe Weather on mobile